Time;durP1;ratioP1;P1;durP2;ratioP2;P2;SDS_P1;SDS_P2;PMS_P1;PMS_P2;Temp;Humidity;BMP_temperature;BMP_pressure;BME280_temperature;BME280_humidity;BME280_pressure;Samples;Min_cycle;Max_cycle;Signal;HPM_P1;HPM_P2
2022/08/27 00:00:47;;;;;;;7.20;2.10;;;16.50;99.90;;;;;;5103374;27;36271;-58
2022/08/27 00:03:15;;;;;;;7.13;2.20;;;16.50;99.90;;;;;;5102842;27;37770;-57
2022/08/27 00:05:44;;;;;;;4.93;1.98;;;16.50;99.90;;;;;;5104374;27;37300;-58
2022/08/27 00:08:13;;;;;;;8.98;2.22;;;16.50;99.90;;;;;;5104006;27;36690;-58
2022/08/27 00:10:41;;;;;;;9.30;2.92;;;16.40;99.90;;;;;;5103029;27;39762;-57
2022/08/27 00:13:09;;;;;;;11.07;2.50;;;16.40;99.90;;;;;;5104144;27;38213;-57
2022/08/27 00:15:36;;;;;;;9.30;3.03;;;16.40;99.90;;;;;;5103425;27;37231;-58
2022/08/27 00:18:04;;;;;;;7.25;2.28;;;16.40;99.90;;;;;;5103650;27;37894;-58
2022/08/27 00:20:31;;;;;;;6.35;2.50;;;16.40;99.90;;;;;;5104356;27;37647;-58
2022/08/27 00:23:00;;;;;;;5.32;2.25;;;16.40;99.90;;;;;;5104324;27;37867;-57
2022/08/27 00:25:28;;;;;;;6.95;2.50;;;16.40;99.90;;;;;;5100200;27;37462;-58
2022/08/27 00:27:55;;;;;;;5.88;2.50;;;16.30;99.90;;;;;;5104327;27;37040;-57
2022/08/27 00:30:24;;;;;;;4.68;1.85;;;16.30;99.90;;;;;;5104038;27;36250;-58
2022/08/27 00:32:51;;;;;;;6.93;2.55;;;16.30;99.90;;;;;;5102929;27;36576;-58
2022/08/27 00:35:19;;;;;;;6.07;2.35;;;16.30;99.90;;;;;;5103331;27;37249;-58
2022/08/27 00:37:46;;;;;;;7.63;2.35;;;16.30;99.90;;;;;;5102029;27;36382;-58
2022/08/27 00:40:17;;;;;;;7.03;2.75;;;16.30;99.90;;;;;;5103770;27;36469;-58
2022/08/27 00:42:45;;;;;;;9.43;2.55;;;16.30;99.90;;;;;;5101830;27;37550;-58
2022/08/27 00:45:14;;;;;;;8.60;2.95;;;16.30;99.90;;;;;;5104081;27;39424;-58
2022/08/27 00:47:49;;;;;;;5.55;2.70;;;16.30;99.90;;;;;;5102759;27;36741;-58
2022/08/27 00:50:23;;;;;;;6.00;2.60;;;16.30;99.90;;;;;;5102579;27;36422;-58
2022/08/27 00:52:54;;;;;;;5.82;2.90;;;16.30;99.90;;;;;;5103867;27;20090;-58
2022/08/27 00:55:27;;;;;;;6.35;3.00;;;16.30;99.90;;;;;;5103386;27;38215;-58
2022/08/27 00:58:02;;;;;;;8.43;3.10;;;16.20;99.90;;;;;;5104603;27;35370;-58
2022/08/27 01:00:29;;;;;;;5.20;2.60;;;16.20;99.90;;;;;;5103447;27;37526;-58
2022/08/27 01:02:56;;;;;;;7.57;3.10;;;16.20;99.90;;;;;;5103371;27;37491;-58
2022/08/27 01:05:25;;;;;;;9.43;3.22;;;16.10;99.90;;;;;;5104498;27;38406;-58
2022/08/27 01:07:57;;;;;;;8.35;2.95;;;16.20;99.90;;;;;;5103945;27;39678;-58
2022/08/27 01:10:28;;;;;;;8.93;3.60;;;16.10;99.90;;;;;;5103091;27;38484;-57
2022/08/27 01:12:56;;;;;;;9.10;3.42;;;16.10;99.90;;;;;;5101848;27;37817;-58
2022/08/27 01:15:27;;;;;;;8.48;3.30;;;16.10;99.90;;;;;;5103491;27;37472;-58
2022/08/27 01:17:55;;;;;;;7.05;2.90;;;16.10;99.90;;;;;;5103967;27;37264;-58
2022/08/27 01:20:26;;;;;;;7.72;3.20;;;16.10;99.90;;;;;;5104460;27;37311;-58
2022/08/27 01:23:01;;;;;;;6.38;3.00;;;16.10;99.90;;;;;;5103564;27;36605;-57
2022/08/27 01:25:31;;;;;;;6.25;2.80;;;16.10;99.90;;;;;;5103004;27;36447;-58
2022/08/27 01:28:02;;;;;;;7.93;2.90;;;16.10;99.90;;;;;;5102635;27;35892;-58
2022/08/27 01:30:30;;;;;;;7.20;2.92;;;16.10;99.90;;;;;;5104490;27;36608;-58
2022/08/27 01:32:57;;;;;;;6.53;3.20;;;16.10;99.90;;;;;;5103611;27;36630;-57
2022/08/27 01:35:26;;;;;;;7.35;3.38;;;16.10;99.90;;;;;;5105340;27;38671;-58
2022/08/27 01:37:55;;;;;;;8.15;2.80;;;16.10;99.90;;;;;;5102875;27;36680;-58
2022/08/27 01:40:22;;;;;;;9.30;3.60;;;16.10;99.90;;;;;;5106183;27;37143;-58
2022/08/27 01:42:54;;;;;;;8.43;3.00;;;16.10;99.90;;;;;;5106143;27;36843;-59
2022/08/27 01:45:24;;;;;;;9.80;3.20;;;16.20;99.90;;;;;;5105115;27;37483;-58
2022/08/27 01:47:52;;;;;;;6.30;2.72;;;16.20;99.90;;;;;;5105906;27;35495;-58
2022/08/27 01:50:22;;;;;;;8.57;3.00;;;16.20;99.90;;;;;;5107090;27;36348;-58
2022/08/27 01:52:50;;;;;;;7.22;3.00;;;16.10;99.90;;;;;;5105320;27;38650;-58
2022/08/27 01:55:22;;;;;;;8.90;2.90;;;16.10;99.90;;;;;;5106660;27;37602;-58
2022/08/27 01:57:51;;;;;;;7.10;3.20;;;16.10;99.90;;;;;;5104424;27;35600;-58
2022/08/27 02:00:22;;;;;;;7.85;3.35;;;16.10;99.90;;;;;;5104224;27;39175;-58
2022/08/27 02:02:50;;;;;;;6.90;3.42;;;16.10;99.90;;;;;;5105566;27;38733;-58
2022/08/27 02:05:18;;;;;;;6.43;3.17;;;16.10;99.90;;;;;;5106003;27;37245;-58
2022/08/27 02:07:46;;;;;;;7.20;3.95;;;16.10;99.90;;;;;;5105804;27;35370;-58
2022/08/27 02:10:16;;;;;;;6.68;3.00;;;16.00;99.90;;;;;;5105697;27;37034;-58
2022/08/27 02:12:43;;;;;;;7.60;3.63;;;16.00;99.90;;;;;;5105616;27;37831;-58
2022/08/27 02:15:13;;;;;;;8.88;3.38;;;16.00;99.90;;;;;;5105938;27;38738;-58
2022/08/27 02:17:40;;;;;;;6.93;2.97;;;16.00;99.90;;;;;;5105526;27;37869;-58
2022/08/27 02:20:09;;;;;;;5.93;3.10;;;16.00;99.90;;;;;;5105340;27;38843;-58
2022/08/27 02:22:37;;;;;;;6.97;3.58;;;16.00;99.90;;;;;;5106156;27;38436;-58
2022/08/27 02:25:06;;;;;;;6.45;3.08;;;16.00;99.90;;;;;;5106653;27;36969;-58
2022/08/27 02:27:34;;;;;;;6.97;3.47;;;16.00;99.90;;;;;;5105317;27;35422;-58
2022/08/27 02:30:01;;;;;;;6.00;3.13;;;16.00;99.90;;;;;;5105987;27;37521;-58
2022/08/27 02:32:30;;;;;;;7.03;3.20;;;16.00;99.90;;;;;;5104102;27;37586;-58
2022/08/27 02:34:57;;;;;;;8.55;3.20;;;16.20;99.90;;;;;;5104759;27;37488;-58
2022/08/27 02:37:25;;;;;;;8.85;2.90;;;16.00;99.90;;;;;;5106353;27;36761;-58
2022/08/27 02:39:53;;;;;;;7.38;3.55;;;16.00;99.90;;;;;;5105928;27;40632;-58
2022/08/27 02:42:20;;;;;;;7.15;3.13;;;16.00;99.90;;;;;;5103584;27;38935;-57
2022/08/27 02:44:47;;;;;;;7.15;3.40;;;16.00;99.90;;;;;;5104985;27;37439;-59
2022/08/27 02:47:15;;;;;;;7.57;3.25;;;16.00;99.90;;;;;;5104465;27;36351;-58
2022/08/27 02:49:44;;;;;;;7.18;3.40;;;16.10;99.90;;;;;;5104947;27;38883;-58
2022/08/27 02:52:11;;;;;;;7.53;3.55;;;16.10;99.90;;;;;;5106485;27;37824;-58
2022/08/27 02:54:39;;;;;;;9.00;3.45;;;16.10;99.90;;;;;;5104600;27;37612;-58
2022/08/27 02:57:06;;;;;;;6.32;3.30;;;16.10;99.90;;;;;;5106920;27;35400;-58
2022/08/27 02:59:33;;;;;;;6.97;3.05;;;16.10;99.90;;;;;;5105362;27;36828;-58
2022/08/27 03:02:01;;;;;;;7.22;4.05;;;16.10;99.90;;;;;;5105380;27;36817;-58
2022/08/27 03:04:28;;;;;;;6.57;3.50;;;16.00;99.90;;;;;;5105441;27;36165;-58
2022/08/27 03:06:58;;;;;;;7.13;3.33;;;16.00;99.90;;;;;;5105882;27;37641;-58
2022/08/27 03:09:25;;;;;;;9.18;3.28;;;16.00;99.90;;;;;;5106495;27;36385;-58
2022/08/27 03:11:53;;;;;;;7.18;2.92;;;16.00;99.90;;;;;;5106769;27;37580;-58
2022/08/27 03:14:21;;;;;;;6.18;2.80;;;16.00;99.90;;;;;;5106282;27;37412;-58
2022/08/27 03:16:48;;;;;;;7.28;3.22;;;16.00;99.90;;;;;;5104133;27;37308;-58
2022/08/27 03:19:14;;;;;;;7.15;2.95;;;16.00;99.90;;;;;;5103610;27;37588;-58
2022/08/27 03:21:42;;;;;;;5.03;2.42;;;16.00;99.90;;;;;;5106707;27;38019;-58
2022/08/27 03:24:10;;;;;;;6.47;2.85;;;16.00;99.90;;;;;;5105961;27;37938;-58
2022/08/27 03:26:38;;;;;;;7.43;2.90;;;16.00;99.90;;;;;;5104243;27;38283;-58
2022/08/27 03:29:06;;;;;;;6.65;2.72;;;16.00;99.90;;;;;;5105638;27;37771;-58
2022/08/27 03:31:33;;;;;;;5.80;3.00;;;15.90;99.90;;;;;;5104668;27;36190;-58
2022/08/27 03:34:05;;;;;;;7.78;3.65;;;15.90;99.90;;;;;;5105292;27;37369;-58
2022/08/27 03:36:32;;;;;;;6.82;3.00;;;15.90;99.90;;;;;;5104948;27;37350;-58
2022/08/27 03:39:00;;;;;;;7.18;2.95;;;15.80;99.90;;;;;;5102955;27;37473;-58
2022/08/27 03:41:28;;;;;;;5.90;2.80;;;15.80;99.90;;;;;;5103095;27;37709;-58
2022/08/27 03:43:56;;;;;;;7.72;3.38;;;15.80;99.90;;;;;;5104069;27;37652;-58
2022/08/27 03:46:26;;;;;;;6.95;3.42;;;15.70;99.90;;;;;;5104582;27;35344;-57
2022/08/27 03:48:54;;;;;;;7.07;3.53;;;15.70;99.90;;;;;;5104774;27;37551;-58
2022/08/27 03:51:22;;;;;;;9.23;3.42;;;15.60;99.90;;;;;;5104633;27;38397;-58
2022/08/27 03:53:49;;;;;;;11.30;3.65;;;15.60;99.90;;;;;;5105091;27;37349;-58
2022/08/27 03:56:17;;;;;;;5.53;2.67;;;15.60;99.90;;;;;;5103623;27;35979;-58
2022/08/27 03:58:45;;;;;;;9.10;3.47;;;15.60;99.90;;;;;;5104506;27;37577;-57
2022/08/27 04:01:13;;;;;;;4.65;2.45;;;15.60;99.90;;;;;;5104454;27;37703;-58
2022/08/27 04:03:40;;;;;;;7.20;3.10;;;15.50;99.90;;;;;;5105165;27;36450;-58
2022/08/27 04:06:08;;;;;;;7.28;2.70;;;15.50;99.90;;;;;;5104180;27;38146;-57
2022/08/27 04:08:35;;;;;;;6.13;3.03;;;15.50;99.90;;;;;;5104526;27;36952;-59
2022/08/27 04:11:05;;;;;;;7.28;3.15;;;15.60;99.90;;;;;;5105010;27;40627;-58
2022/08/27 04:13:33;;;;;;;5.45;2.92;;;15.50;99.90;;;;;;5103623;27;37398;-58
2022/08/27 04:16:05;;;;;;;6.45;3.10;;;15.50;99.90;;;;;;5103689;27;36504;-57
2022/08/27 04:18:32;;;;;;;5.95;2.80;;;15.50;99.90;;;;;;5104025;27;38539;-58
2022/08/27 04:21:07;;;;;;;7.60;3.13;;;15.50;99.90;;;;;;5102733;27;36454;-58
2022/08/27 04:23:34;;;;;;;6.50;2.97;;;15.50;99.90;;;;;;5104109;27;37227;-58
2022/08/27 04:26:05;;;;;;;6.47;2.72;;;15.50;99.90;;;;;;5104266;27;39020;-58
2022/08/27 04:28:33;;;;;;;7.22;2.90;;;15.40;99.90;;;;;;5104908;27;39772;-58
2022/08/27 04:31:02;;;;;;;8.02;3.03;;;15.40;99.90;;;;;;5103921;27;39015;-57
2022/08/27 04:33:31;;;;;;;6.00;2.38;;;15.40;99.90;;;;;;5103754;27;39856;-58
2022/08/27 04:35:59;;;;;;;7.40;2.53;;;15.40;99.90;;;;;;5102367;27;36755;-57
2022/08/27 04:38:26;;;;;;;7.32;2.88;;;15.40;99.90;;;;;;5104547;27;39192;-58
2022/08/27 04:43:38;;;;;;;7.38;2.92;;;15.40;99.90;;;;;;5103181;27;39655;-58
2022/08/27 04:46:07;;;;;;;6.93;2.70;;;15.30;99.90;;;;;;5101997;27;35510;-58
2022/08/27 04:48:35;;;;;;;7.53;2.92;;;15.40;99.90;;;;;;5103506;27;37501;-58
2022/08/27 04:51:02;;;;;;;6.25;2.35;;;15.40;99.90;;;;;;5102177;27;36557;-58
2022/08/27 04:53:30;;;;;;;7.50;2.90;;;15.40;99.90;;;;;;5104002;27;37374;-58
2022/08/27 04:55:57;;;;;;;5.88;2.90;;;15.40;99.90;;;;;;5102212;27;36760;-58
2022/08/27 04:58:26;;;;;;;10.50;3.33;;;15.50;99.90;;;;;;5104220;27;39564;-58
2022/08/27 05:00:56;;;;;;;11.48;2.90;;;15.50;99.90;;;;;;5102430;27;36522;-57
2022/08/27 05:03:25;;;;;;;6.95;2.90;;;15.60;99.90;;;;;;5104390;27;38640;-58
2022/08/27 05:05:58;;;;;;;7.60;2.72;;;15.60;99.90;;;;;;5104260;27;35940;-59
2022/08/27 05:08:25;;;;;;;6.15;2.90;;;15.60;99.90;;;;;;5103676;27;37460;-58
2022/08/27 05:10:53;;;;;;;6.53;2.55;;;15.60;99.90;;;;;;5104089;27;37069;-57
2022/08/27 05:13:23;;;;;;;5.72;2.85;;;15.70;99.90;;;;;;5102961;27;38340;-58
2022/08/27 05:15:57;;;;;;;8.57;2.58;;;15.70;99.90;;;;;;5102111;27;35345;-58
2022/08/27 05:18:26;;;;;;;9.52;4.00;;;15.80;99.90;;;;;;5103089;27;36197;-58
2022/08/27 05:20:53;;;;;;;7.82;2.78;;;15.80;99.90;;;;;;5103852;27;36757;-58
2022/08/27 05:23:21;;;;;;;6.57;2.38;;;15.90;99.90;;;;;;5103403;27;37402;-58
2022/08/27 05:25:51;;;;;;;6.82;2.50;;;15.90;99.90;;;;;;5103671;27;37437;-58
2022/08/27 05:28:20;;;;;;;8.45;2.13;;;16.00;99.90;;;;;;5103970;27;38199;-57
2022/08/27 05:30:50;;;;;;;4.93;2.00;;;16.10;99.90;;;;;;5104492;27;37281;-58
2022/08/27 05:33:19;;;;;;;5.70;2.42;;;16.10;99.90;;;;;;5103612;27;36917;-58
2022/08/27 05:35:49;;;;;;;6.32;2.60;;;16.20;99.90;;;;;;5103197;27;36523;-58
2022/08/27 05:38:18;;;;;;;5.45;2.05;;;16.30;99.90;;;;;;5103305;27;37576;-58
2022/08/27 05:40:46;;;;;;;7.90;2.58;;;16.30;99.90;;;;;;5103094;27;38478;-58
2022/08/27 05:43:14;;;;;;;6.53;2.38;;;16.30;99.90;;;;;;5104002;27;37344;-58
2022/08/27 05:45:44;;;;;;;4.65;2.08;;;16.40;99.90;;;;;;5103347;27;37952;-58
2022/08/27 05:48:12;;;;;;;6.65;2.15;;;16.40;99.90;;;;;;5101864;27;40126;-58
2022/08/27 05:50:40;;;;;;;9.52;2.65;;;16.40;99.90;;;;;;5103847;27;38324;-58
2022/08/27 05:53:10;;;;;;;6.97;2.50;;;16.50;99.90;;;;;;5103104;27;38356;-58
2022/08/27 05:55:38;;;;;;;8.98;2.67;;;16.50;99.90;;;;;;5102465;27;36789;-58
2022/08/27 05:58:06;;;;;;;5.78;2.08;;;16.60;99.90;;;;;;5102624;27;37500;-58
2022/08/27 06:03:18;;;;;;;7.80;2.17;;;16.50;99.90;;;;;;5103040;27;38079;-58
2022/08/27 06:05:45;;;;;;;6.35;1.98;;;16.50;99.90;;;;;;5100074;27;36302;-58
2022/08/27 06:08:14;;;;;;;7.78;2.58;;;16.50;99.90;;;;;;5100310;27;36321;-58
2022/08/27 06:10:42;;;;;;;6.63;2.20;;;16.50;99.90;;;;;;5102436;27;36585;-58
2022/08/27 06:13:09;;;;;;;6.05;2.38;;;16.60;99.90;;;;;;5103069;27;39084;-57
2022/08/27 06:15:36;;;;;;;8.35;2.90;;;16.70;99.90;;;;;;5100439;27;36513;-58
2022/08/27 06:18:04;;;;;;;5.28;2.05;;;16.70;99.90;;;;;;5102732;27;37819;-58
2022/08/27 06:20:32;;;;;;;6.70;2.40;;;16.70;99.90;;;;;;5106323;27;37726;-57
2022/08/27 06:22:59;;;;;;;5.50;1.88;;;16.80;99.90;;;;;;5106269;27;37905;-58
2022/08/27 06:25:29;;;;;;;5.10;2.00;;;16.80;99.90;;;;;;5104610;27;36640;-57
2022/08/27 06:27:56;;;;;;;9.55;2.42;;;16.90;99.90;;;;;;5105843;27;37408;-58
2022/08/27 06:30:23;;;;;;;6.55;2.28;;;16.90;99.90;;;;;;5105929;27;36451;-58
2022/08/27 06:32:51;;;;;;;6.15;2.00;;;17.00;99.90;;;;;;5107508;27;38296;-58
2022/08/27 06:35:19;;;;;;;6.88;2.15;;;17.10;99.90;;;;;;5104970;27;36801;-57
2022/08/27 06:37:46;;;;;;;6.60;2.25;;;17.10;99.90;;;;;;5106535;27;37894;-58
2022/08/27 06:40:14;;;;;;;7.50;2.08;;;17.10;99.90;;;;;;5107258;27;38078;-58
2022/08/27 06:42:43;;;;;;;6.82;1.90;;;17.10;99.90;;;;;;5106053;27;37330;-58
2022/08/27 06:45:11;;;;;;;8.80;2.42;;;17.20;99.90;;;;;;5106491;27;36756;-58
2022/08/27 06:47:38;;;;;;;6.22;1.67;;;17.20;99.90;;;;;;5106364;27;37622;-58
2022/08/27 06:50:06;;;;;;;4.93;1.65;;;17.30;99.90;;;;;;5105703;27;37650;-57
2022/08/27 06:52:34;;;;;;;6.03;2.00;;;17.40;99.90;;;;;;5106045;27;36171;-57
2022/08/27 06:55:01;;;;;;;7.50;1.90;;;17.40;99.90;;;;;;5105494;27;38199;-57
2022/08/27 06:57:28;;;;;;;6.53;2.00;;;17.40;99.90;;;;;;5106242;27;37847;-58
2022/08/27 06:59:57;;;;;;;6.22;1.85;;;17.50;99.90;;;;;;5102029;27;36314;-58
2022/08/27 07:02:24;;;;;;;5.95;2.00;;;17.60;99.90;;;;;;5105359;27;36426;-58
2022/08/27 07:04:53;;;;;;;5.45;1.50;;;17.60;99.90;;;;;;5104549;27;36937;-58
2022/08/27 07:07:20;;;;;;;6.57;1.70;;;17.70;99.90;;;;;;5105382;27;37756;-58
2022/08/27 07:09:48;;;;;;;5.43;1.75;;;17.70;99.90;;;;;;5104521;27;38731;-58
2022/08/27 07:12:15;;;;;;;7.28;1.48;;;17.70;99.90;;;;;;5105198;27;37274;-58
2022/08/27 07:14:42;;;;;;;6.60;1.80;;;17.80;99.90;;;;;;5105398;27;36450;-58
2022/08/27 07:17:12;;;;;;;5.35;1.42;;;17.90;99.90;;;;;;5105199;27;37324;-58
2022/08/27 07:19:39;;;;;;;5.25;1.48;;;17.90;99.90;;;;;;5105616;27;37606;-58
2022/08/27 07:22:06;;;;;;;5.10;1.40;;;17.90;99.90;;;;;;5105466;27;37699;-58
2022/08/27 07:24:34;;;;;;;7.03;1.50;;;18.00;99.90;;;;;;5105104;27;37705;-58
2022/08/27 07:27:02;;;;;;;12.02;2.25;;;18.00;99.90;;;;;;5106159;27;37647;-58
2022/08/27 07:29:29;;;;;;;5.82;1.77;;;18.10;99.90;;;;;;5105458;27;37666;-58
2022/08/27 07:31:56;;;;;;;7.28;1.50;;;18.20;99.90;;;;;;5104125;27;37964;-58
2022/08/27 07:34:25;;;;;;;5.00;1.45;;;18.30;99.90;;;;;;5103987;27;38342;-58
2022/08/27 07:36:52;;;;;;;7.00;1.77;;;18.40;99.90;;;;;;5104643;27;37889;-58
2022/08/27 07:39:20;;;;;;;7.93;1.90;;;18.50;99.90;;;;;;5105604;27;36428;-58
2022/08/27 07:44:32;;;;;;;8.18;1.70;;;18.50;99.90;;;;;;5104303;27;38304;-58
2022/08/27 07:46:59;;;;;;;4.63;1.27;;;18.50;99.90;;;;;;5104910;27;37816;-57
2022/08/27 07:49:30;;;;;;;13.07;1.50;;;18.50;99.90;;;;;;5105075;27;37869;-58
2022/08/27 07:51:57;;;;;;;8.57;1.40;;;18.50;99.90;;;;;;5104238;27;37559;-58
2022/08/27 07:54:25;;;;;;;6.60;1.27;;;18.50;99.90;;;;;;5104143;27;36646;-57
2022/08/27 07:56:52;;;;;;;11.13;1.60;;;18.60;99.90;;;;;;5103717;27;37735;-58
2022/08/27 07:59:19;;;;;;;5.80;1.67;;;18.60;99.90;;;;;;5104257;27;36446;-58
2022/08/27 08:01:47;;;;;;;7.55;1.55;;;18.50;99.90;;;;;;5102389;27;37730;-57
2022/08/27 08:04:15;;;;;;;7.13;1.60;;;18.60;99.80;;;;;;5103264;27;36466;-58
2022/08/27 08:06:44;;;;;;;6.80;1.52;;;18.60;99.80;;;;;;5103456;27;36482;-58
2022/08/27 08:09:11;;;;;;;9.68;1.65;;;18.60;99.70;;;;;;5104576;27;37675;-58
2022/08/27 08:11:38;;;;;;;7.28;1.48;;;18.60;99.50;;;;;;5104408;27;37203;-58
2022/08/27 08:14:05;;;;;;;7.43;1.88;;;18.60;99.40;;;;;;5105180;27;37911;-58
2022/08/27 08:16:33;;;;;;;8.75;1.45;;;18.60;99.00;;;;;;5105450;27;36316;-58
2022/08/27 08:19:00;;;;;;;8.02;1.50;;;18.60;98.90;;;;;;5105008;27;39089;-58
2022/08/27 08:21:28;;;;;;;8.48;1.67;;;18.60;98.70;;;;;;5103927;27;38126;-58
2022/08/27 08:23:56;;;;;;;7.40;1.45;;;18.70;98.70;;;;;;5104528;27;36452;-57
2022/08/27 08:26:24;;;;;;;6.22;1.15;;;18.70;98.60;;;;;;5103802;27;37401;-58
2022/08/27 08:28:51;;;;;;;7.95;1.50;;;18.70;98.20;;;;;;5103377;27;38304;-58
2022/08/27 08:31:18;;;;;;;4.55;1.20;;;18.80;98.40;;;;;;5102993;27;37208;-58
2022/08/27 08:33:47;;;;;;;7.35;1.70;;;18.80;98.20;;;;;;5103814;27;37400;-58
2022/08/27 08:36:16;;;;;;;6.82;1.20;;;18.90;97.70;;;;;;5104445;27;36389;-58
2022/08/27 08:38:45;;;;;;;5.80;1.35;;;18.90;97.50;;;;;;5103190;27;37674;-58
2022/08/27 08:41:39;;;;;;;10.05;1.50;;;18.90;97.40;;;;;;5104349;27;38953;-58
2022/08/27 08:44:14;;;;;;;6.65;1.20;;;19.10;97.20;;;;;;5103818;27;36559;-57
2022/08/27 08:46:49;;;;;;;6.10;1.30;;;19.40;97.00;;;;;;5103346;27;38263;-58
2022/08/27 08:49:29;;;;;;;4.60;1.58;;;19.50;96.80;;;;;;5103587;27;36652;-58
2022/08/27 08:52:03;;;;;;;5.25;1.23;;;19.50;97.00;;;;;;5103866;27;38859;-58
2022/08/27 08:54:33;;;;;;;5.15;1.13;;;19.40;96.90;;;;;;5104521;27;37687;-58
2022/08/27 08:57:07;;;;;;;5.75;1.15;;;19.40;96.70;;;;;;5104055;27;37574;-58
2022/08/27 08:59:37;;;;;;;9.90;1.73;;;19.30;96.60;;;;;;5104230;27;37900;-58
2022/08/27 09:02:07;;;;;;;7.88;1.45;;;19.20;96.70;;;;;;5105406;27;37219;-57
2022/08/27 09:04:34;;;;;;;6.25;1.30;;;19.10;96.70;;;;;;5103313;27;36542;-58
2022/08/27 09:07:07;;;;;;;5.95;1.40;;;19.10;96.90;;;;;;5104222;27;38427;-58
2022/08/27 09:09:39;;;;;;;7.95;1.55;;;19.10;96.90;;;;;;5104320;27;37686;-57
2022/08/27 09:12:14;;;;;;;8.50;1.40;;;19.10;96.90;;;;;;5105310;27;37903;-58
2022/08/27 09:14:46;;;;;;;10.13;1.35;;;19.10;96.90;;;;;;5104980;27;37226;-57
2022/08/27 09:17:14;;;;;;;7.13;1.55;;;19.10;96.80;;;;;;5103068;27;37431;-58
2022/08/27 09:19:42;;;;;;;9.98;1.20;;;19.10;96.80;;;;;;5104519;27;36596;-58
2022/08/27 09:22:18;;;;;;;6.15;1.30;;;19.10;97.00;;;;;;5105370;27;36225;-58
2022/08/27 09:24:52;;;;;;;6.40;1.40;;;19.10;96.80;;;;;;5104861;27;36644;-58
2022/08/27 09:27:22;;;;;;;8.85;1.95;;;19.10;97.00;;;;;;5104022;27;37810;-58
2022/08/27 09:29:52;;;;;;;6.95;1.45;;;19.20;96.90;;;;;;5104093;27;37642;-58
2022/08/27 09:32:23;;;;;;;6.47;1.20;;;19.20;96.50;;;;;;5103054;27;37588;-57
2022/08/27 09:34:51;;;;;;;5.60;1.30;;;19.20;96.20;;;;;;5100573;27;37602;-57
2022/08/27 09:37:22;;;;;;;7.70;1.45;;;19.20;95.80;;;;;;5103380;27;36323;-58
2022/08/27 09:39:53;;;;;;;7.75;1.77;;;19.20;95.70;;;;;;5103828;27;37729;-58
2022/08/27 09:42:32;;;;;;;6.63;1.48;;;19.20;95.80;;;;;;5104431;27;38168;-57
2022/08/27 09:44:59;;;;;;;16.20;3.08;;;19.30;96.00;;;;;;5103425;27;35356;-58
2022/08/27 09:47:27;;;;;;;6.30;1.33;;;19.30;95.70;;;;;;5100499;27;37830;-58
2022/08/27 09:50:02;;;;;;;7.25;1.30;;;19.30;95.40;;;;;;5103093;27;37993;-57
2022/08/27 09:52:35;;;;;;;6.60;1.52;;;19.30;95.20;;;;;;5103048;27;38873;-57
2022/08/27 09:55:02;;;;;;;7.80;1.70;;;19.30;95.70;;;;;;5105765;27;37301;-57
2022/08/27 09:57:35;;;;;;;5.50;1.20;;;19.40;95.70;;;;;;5106552;27;37633;-57
2022/08/27 10:00:08;;;;;;;5.45;1.38;;;19.40;95.50;;;;;;5105043;27;38329;-58
2022/08/27 10:02:35;;;;;;;6.82;1.15;;;19.40;95.40;;;;;;5103581;27;38768;-58
2022/08/27 10:05:16;;;;;;;8.75;1.77;;;19.40;95.60;;;;;;5105245;27;36505;-58
2022/08/27 10:07:51;;;;;;;5.90;1.40;;;19.60;95.90;;;;;;5106222;27;39292;-57
2022/08/27 10:10:22;;;;;;;5.22;1.00;;;20.00;95.60;;;;;;5105641;27;37716;-57
2022/08/27 10:12:57;;;;;;;12.25;1.35;;;20.20;94.60;;;;;;5106675;27;39419;-57
2022/08/27 10:15:29;;;;;;;7.50;1.75;;;20.30;93.90;;;;;;5106302;27;36659;-57
2022/08/27 10:18:03;;;;;;;7.10;1.05;;;20.30;94.50;;;;;;5107011;27;37549;-57
2022/08/27 10:20:39;;;;;;;6.57;1.15;;;20.30;94.50;;;;;;5104358;27;37686;-58
2022/08/27 10:23:16;;;;;;;5.82;1.65;;;20.20;94.40;;;;;;5106971;27;37915;-58
2022/08/27 10:25:53;;;;;;;8.73;1.67;;;20.20;93.80;;;;;;5106228;27;36504;-58
2022/08/27 10:28:37;;;;;;;5.25;1.20;;;20.10;93.50;;;;;;5107682;27;38372;-57
2022/08/27 10:31:18;;;;;;;4.28;1.00;;;20.00;92.90;;;;;;5105879;27;37721;-58
2022/08/27 10:33:59;;;;;;;6.57;1.50;;;20.00;93.50;;;;;;5105531;27;37426;-57
2022/08/27 10:36:38;;;;;;;7.30;1.10;;;20.20;93.50;;;;;;5106801;27;37513;-58
2022/08/27 10:39:12;;;;;;;8.88;1.30;;;20.60;94.00;;;;;;5106429;27;36361;-58
2022/08/27 10:41:45;;;;;;;7.45;1.27;;;20.90;93.70;;;;;;5105849;27;37689;-58
2022/08/27 10:44:19;;;;;;;;;;;20.90;93.20;;;;;;5106776;27;37247;-58
2022/08/27 10:47:04;;;;;;;7.22;0.85;;;20.90;93.20;;;;;;5106802;27;37100;-57
2022/08/27 10:49:42;;;;;;;7.90;1.10;;;20.60;92.70;;;;;;5101011;27;36223;-58
2022/08/27 10:52:17;;;;;;;10.50;1.60;;;20.60;92.10;;;;;;5104945;27;39179;-57
2022/08/27 10:54:51;;;;;;;8.38;1.45;;;20.60;92.40;;;;;;5104999;27;37493;-57
2022/08/27 10:57:31;;;;;;;10.25;1.48;;;20.80;91.40;;;;;;5105867;27;36627;-58
2022/08/27 11:00:09;;;;;;;7.15;0.93;;;21.00;91.20;;;;;;5106853;27;37545;-58
2022/08/27 11:02:42;;;;;;;7.00;1.02;;;21.20;91.70;;;;;;5102553;27;38607;-57
2022/08/27 11:05:16;;;;;;;5.97;1.40;;;21.50;91.80;;;;;;5102472;27;37468;-58
2022/08/27 11:07:47;;;;;;;6.35;1.10;;;21.80;91.10;;;;;;5105656;27;36961;-58
2022/08/27 11:10:24;;;;;;;5.97;1.20;;;21.90;89.40;;;;;;5105174;27;39117;-57
2022/08/27 11:12:55;;;;;;;6.47;1.15;;;22.00;86.20;;;;;;5104548;27;37700;-57
2022/08/27 11:15:27;;;;;;;3.80;1.17;;;22.00;84.70;;;;;;5099279;27;37621;-58
2022/08/27 11:18:01;;;;;;;4.68;1.10;;;22.00;84.00;;;;;;5105418;27;38610;-58
2022/08/27 11:20:31;;;;;;;4.80;1.05;;;22.10;85.90;;;;;;5103303;27;37928;-57
2022/08/27 11:23:05;;;;;;;10.07;1.73;;;22.30;87.70;;;;;;5104025;27;38089;-57
2022/08/27 11:25:45;;;;;;;8.25;1.00;;;22.60;88.80;;;;;;5100178;27;36858;-57
2022/08/27 11:28:14;;;;;;;6.85;1.10;;;22.90;86.70;;;;;;5103583;27;36509;-58
2022/08/27 11:30:56;;;;;;;7.72;1.20;;;23.00;85.10;;;;;;5105091;27;37527;-57
2022/08/27 11:33:30;;;;;;;4.70;1.13;;;22.90;80.80;;;;;;5104449;27;37895;-58
2022/08/27 11:36:14;;;;;;;4.95;1.17;;;22.50;80.40;;;;;;5104726;27;36140;-58
2022/08/27 11:38:47;;;;;;;4.22;1.00;;;22.20;79.70;;;;;;5104505;27;36449;-58
2022/08/27 11:41:31;;;;;;;5.88;1.15;;;22.00;81.60;;;;;;5104988;27;38355;-57
2022/08/27 11:44:00;;;;;;;9.57;1.48;;;22.10;83.60;;;;;;5101645;27;37773;-57
2022/08/27 11:46:39;;;;;;;6.93;1.20;;;22.10;85.00;;;;;;5102987;27;38403;-58
2022/08/27 11:49:06;;;;;;;6.45;1.83;;;22.00;85.00;;;;;;5104125;27;36024;-57
2022/08/27 11:51:36;;;;;;;9.60;1.25;;;21.70;85.80;;;;;;5104696;27;39007;-57
2022/08/27 11:54:06;;;;;;;9.18;1.35;;;21.50;86.20;;;;;;5105633;27;37743;-57
2022/08/27 11:56:40;;;;;;;5.13;1.00;;;21.40;87.10;;;;;;5104116;27;37194;-57
2022/08/27 11:59:29;;;;;;;5.68;0.95;;;21.40;89.70;;;;;;5103414;27;37413;-57
2022/08/27 12:02:12;;;;;;;7.22;1.17;;;21.50;89.00;;;;;;5102927;27;37554;-57
2022/08/27 12:04:41;;;;;;;6.68;1.10;;;21.60;88.10;;;;;;5103356;27;36525;-57
2022/08/27 12:07:28;;;;;;;8.68;1.33;;;21.60;87.90;;;;;;5103563;27;37208;-57
2022/08/27 12:10:18;;;;;;;4.68;1.17;;;21.60;88.70;;;;;;5104883;27;36717;-57
2022/08/27 12:12:56;;;;;;;5.93;0.80;;;21.60;88.80;;;;;;5103776;27;37804;-58
2022/08/27 12:15:34;;;;;;;9.10;1.20;;;21.60;88.10;;;;;;5102850;27;37916;-57
2022/08/27 12:18:09;;;;;;;3.78;0.90;;;21.70;87.60;;;;;;5102928;27;38225;-58
2022/08/27 12:20:46;;;;;;;6.60;1.15;;;21.70;87.20;;;;;;5102588;27;35309;-57
2022/08/27 12:23:43;;;;;;;3.95;0.90;;;21.70;86.20;;;;;;5103387;27;37529;-57
2022/08/27 12:26:20;;;;;;;5.55;1.00;;;21.70;85.40;;;;;;5103874;27;37602;-57
2022/08/27 12:28:48;;;;;;;4.90;1.08;;;21.80;86.00;;;;;;5106014;27;37215;-58
2022/08/27 12:31:19;;;;;;;6.50;1.33;;;21.80;86.00;;;;;;5104564;27;36391;-58
2022/08/27 12:33:51;;;;;;;5.03;1.23;;;21.70;85.50;;;;;;5101364;27;37814;-57
2022/08/27 12:36:23;;;;;;;4.15;0.73;;;21.60;84.70;;;;;;5102041;27;37536;-57
2022/08/27 12:38:53;;;;;;;4.13;0.82;;;21.50;84.40;;;;;;5099895;27;37072;-57
2022/08/27 12:41:26;;;;;;;4.30;1.00;;;21.40;85.30;;;;;;5102956;27;37730;-57
2022/08/27 12:44:03;;;;;;;5.63;1.07;;;21.40;85.30;;;;;;5103749;27;36445;-57
2022/08/27 12:46:31;;;;;;;7.15;0.90;;;21.50;85.00;;;;;;5099759;27;37963;-57
2022/08/27 12:49:03;;;;;;;4.28;0.90;;;21.50;84.80;;;;;;5101300;27;38381;-58
2022/08/27 12:51:33;;;;;;;7.22;1.48;;;21.50;85.60;;;;;;5104156;27;36223;-57
2022/08/27 12:54:08;;;;;;;6.05;1.02;;;21.60;85.10;;;;;;5105531;27;38643;-58
2022/08/27 12:56:50;;;;;;;9.35;1.88;;;21.50;84.20;;;;;;5102117;27;39789;-57
2022/08/27 12:59:49;;;;;;;7.38;1.33;;;21.30;83.40;;;;;;5102542;27;37569;-57
2022/08/27 13:02:35;;;;;;;9.80;1.98;;;21.30;85.40;;;;;;5103385;27;35338;-57
2022/08/27 13:05:05;;;;;;;4.75;1.40;;;21.40;87.80;;;;;;5104658;27;37310;-57
2022/08/27 13:07:39;;;;;;;20.58;1.75;;;21.40;86.50;;;;;;5104600;27;39438;-57
2022/08/27 13:10:12;;;;;;;7.93;1.45;;;21.40;86.30;;;;;;5101999;27;36300;-58